Time;durP1;ratioP1;P1;durP2;ratioP2;P2;SDS_P1;SDS_P2;PMS_P1;PMS_P2;Temp;Humidity;BMP_temperature;BMP_pressure;BME280_temperature;BME280_humidity;BME280_pressure;Samples;Min_cycle;Max_cycle;Signal;HPM_P1;HPM_P2
2021/04/07 00:02:07;;;;;;;1.92;1.60;;;5.90;62.20;;;;;;5096185;28;20027;-84
2021/04/07 00:04:36;;;;;;;1.52;1.35;;;5.80;62.20;;;;;;5113082;28;20024;-83
2021/04/07 00:07:03;;;;;;;2.92;1.40;;;5.80;62.20;;;;;;5112305;27;20484;-84
2021/04/07 00:09:29;;;;;;;1.98;1.40;;;5.80;62.20;;;;;;5113302;28;20024;-83
2021/04/07 00:11:55;;;;;;;1.95;1.58;;;5.80;62.20;;;;;;5095368;28;20028;-82
2021/04/07 00:14:21;;;;;;;1.67;1.50;;;5.80;62.20;;;;;;5096134;28;20130;-83
2021/04/07 00:16:48;;;;;;;2.88;1.67;;;5.80;62.30;;;;;;5095823;28;20051;-82
2021/04/07 00:19:15;;;;;;;1.58;1.48;;;5.80;62.30;;;;;;5116357;27;20057;-83
2021/04/07 00:21:41;;;;;;;1.98;1.40;;;5.80;62.30;;;;;;5095894;28;20135;-82
2021/04/07 00:24:07;;;;;;;4.70;1.95;;;5.80;62.30;;;;;;5113777;28;20059;-83
2021/04/07 00:26:36;;;;;;;1.98;1.52;;;5.70;62.20;;;;;;5094477;28;20031;-82
2021/04/07 00:29:02;;;;;;;2.08;1.48;;;5.70;62.30;;;;;;5095872;28;20499;-82
2021/04/07 00:31:28;;;;;;;2.25;1.30;;;5.70;62.30;;;;;;5096528;28;20161;-83
2021/04/07 00:33:54;;;;;;;1.30;1.20;;;5.70;62.30;;;;;;5092416;28;20056;-82
2021/04/07 00:36:20;;;;;;;1.75;1.42;;;5.70;62.30;;;;;;5093926;28;20057;-83
2021/04/07 00:38:46;;;;;;;2.88;1.55;;;5.70;62.30;;;;;;5095965;28;20039;-82
2021/04/07 00:41:12;;;;;;;2.15;1.40;;;5.60;62.30;;;;;;5095995;28;20023;-82
2021/04/07 00:43:37;;;;;;;1.33;1.23;;;5.60;62.30;;;;;;5095495;28;20620;-83
2021/04/07 00:46:03;;;;;;;1.67;1.33;;;5.60;62.30;;;;;;5091432;28;20032;-83
2021/04/07 00:48:30;;;;;;;1.73;1.40;;;5.60;62.30;;;;;;5112624;28;20442;-83
2021/04/07 00:50:56;;;;;;;1.67;1.40;;;5.60;62.40;;;;;;5112457;28;20480;-83
2021/04/07 00:53:22;;;;;;;1.65;1.25;;;5.60;62.40;;;;;;5095400;28;20085;-83
2021/04/07 00:55:48;;;;;;;2.13;1.50;;;5.60;62.40;;;;;;5112092;28;20531;-83
2021/04/07 00:58:15;;;;;;;2.00;1.55;;;5.50;62.40;;;;;;5111802;28;20107;-83
2021/04/07 01:00:42;;;;;;;2.08;1.33;;;5.50;62.40;;;;;;5097493;28;20048;-83
2021/04/07 01:03:15;;;;;;;2.17;1.75;;;5.50;62.40;;;;;;5103000;28;20031;-83
2021/04/07 01:05:41;;;;;;;1.42;1.33;;;5.50;62.40;;;;;;5112502;28;20059;-83
2021/04/07 01:08:07;;;;;;;1.92;1.52;;;5.50;62.40;;;;;;5111974;28;20049;-83
2021/04/07 01:10:33;;;;;;;1.60;1.50;;;5.50;62.40;;;;;;5095468;28;20032;-83
2021/04/07 01:12:59;;;;;;;2.17;1.70;;;5.50;62.40;;;;;;5081144;28;20468;-83
2021/04/07 01:15:24;;;;;;;2.28;1.92;;;5.50;62.40;;;;;;5098912;28;20048;-83
2021/04/07 01:17:50;;;;;;;4.57;2.40;;;5.50;62.40;;;;;;5111897;28;20035;-83
2021/04/07 01:20:20;;;;;;;3.42;2.00;;;5.40;62.40;;;;;;5109033;27;20030;-83
2021/04/07 01:22:54;;;;;;;2.88;1.90;;;5.40;62.50;;;;;;5120238;27;20036;-83
2021/04/07 01:25:20;;;;;;;3.53;2.30;;;5.40;62.60;;;;;;5116739;28;20053;-83
2021/04/07 01:27:46;;;;;;;5.00;2.30;;;5.40;62.50;;;;;;5099063;28;20047;-83
2021/04/07 01:30:15;;;;;;;6.18;2.10;;;5.40;62.60;;;;;;5109088;28;20035;-83
2021/04/07 01:32:41;;;;;;;3.25;2.08;;;5.40;62.60;;;;;;5116264;28;20027;-83
2021/04/07 01:35:10;;;;;;;3.05;1.92;;;5.40;62.60;;;;;;5115849;28;20028;-83
2021/04/07 01:37:36;;;;;;;2.58;1.70;;;5.40;62.70;;;;;;5116395;28;20372;-83
2021/04/07 01:40:07;;;;;;;4.72;2.50;;;5.40;62.70;;;;;;5098910;28;20028;-83
2021/04/07 01:42:34;;;;;;;4.68;2.03;;;5.40;62.70;;;;;;5115742;28;20165;-83
2021/04/07 01:45:03;;;;;;;2.42;2.00;;;5.30;62.70;;;;;;5107888;28;20126;-83
2021/04/07 01:47:29;;;;;;;4.30;2.10;;;5.40;62.80;;;;;;5115804;28;20062;-84
2021/04/07 01:49:58;;;;;;;4.07;2.65;;;5.30;62.70;;;;;;5098738;28;20031;-83
2021/04/07 01:52:24;;;;;;;3.08;2.05;;;5.30;62.80;;;;;;5116186;28;20084;-84
2021/04/07 01:54:50;;;;;;;3.55;2.15;;;5.30;62.70;;;;;;5097982;28;20027;-82
2021/04/07 01:57:16;;;;;;;4.05;1.90;;;5.30;62.80;;;;;;5094850;28;20384;-83
2021/04/07 01:59:42;;;;;;;4.35;2.35;;;5.40;62.90;;;;;;5115282;28;20498;-83
2021/04/07 02:02:07;;;;;;;3.67;1.90;;;5.30;62.90;;;;;;5132417;27;20063;-83
2021/04/07 02:04:33;;;;;;;2.45;1.70;;;5.30;62.90;;;;;;5107147;28;20024;-83
2021/04/07 02:07:08;;;;;;;3.30;2.38;;;5.30;62.90;;;;;;5097440;28;20048;-83
2021/04/07 02:09:34;;;;;;;3.97;2.20;;;5.30;63.00;;;;;;5097959;28;20096;-82
2021/04/07 02:11:59;;;;;;;2.97;1.95;;;5.30;62.90;;;;;;5100548;28;20036;-83
2021/04/07 02:14:26;;;;;;;2.97;2.10;;;5.30;62.90;;;;;;5098194;28;20019;-83
2021/04/07 02:16:56;;;;;;;3.72;2.00;;;5.30;63.00;;;;;;5097973;28;20061;-80
2021/04/07 02:19:23;;;;;;;3.13;1.85;;;5.30;63.00;;;;;;5121214;27;20039;-83
2021/04/07 02:22:00;;;;;;;3.33;2.40;;;5.30;63.10;;;;;;5115287;28;20035;-84
2021/04/07 02:24:26;;;;;;;2.70;1.90;;;5.30;63.10;;;;;;5116588;28;20039;-85
2021/04/07 02:26:52;;;;;;;3.50;2.05;;;5.30;63.10;;;;;;5098153;28;20024;-83
2021/04/07 02:29:18;;;;;;;2.55;1.67;;;5.30;63.10;;;;;;5094962;28;20495;-84
2021/04/07 02:31:43;;;;;;;3.58;1.92;;;5.30;63.10;;;;;;5098472;28;20032;-84
2021/04/07 02:34:11;;;;;;;2.33;1.80;;;5.30;63.10;;;;;;5098334;28;20019;-84
2021/04/07 02:36:36;;;;;;;3.05;2.13;;;5.30;63.20;;;;;;5098515;28;20108;-84
2021/04/07 02:39:03;;;;;;;3.08;1.83;;;5.30;63.20;;;;;;5114436;28;20051;-84
2021/04/07 02:41:29;;;;;;;2.08;1.52;;;5.30;63.20;;;;;;5115018;28;20040;-84
2021/04/07 02:43:55;;;;;;;2.58;1.80;;;5.30;63.20;;;;;;5097738;28;20016;-83
2021/04/07 02:46:21;;;;;;;3.08;1.80;;;5.30;63.20;;;;;;5097997;28;20038;-83
2021/04/07 02:48:47;;;;;;;2.53;1.60;;;5.30;63.30;;;;;;5120016;27;20035;-83
2021/04/07 02:51:12;;;;;;;2.20;1.60;;;5.30;63.30;;;;;;5114945;27;20031;-84
2021/04/07 02:53:38;;;;;;;1.75;1.50;;;5.30;63.30;;;;;;5098951;28;20040;-84
2021/04/07 02:56:04;;;;;;;1.77;1.63;;;5.30;63.30;;;;;;5096900;28;20123;-82
2021/04/07 02:58:30;;;;;;;2.03;1.60;;;5.30;63.30;;;;;;5114664;28;20027;-84
2021/04/07 03:00:56;;;;;;;2.13;1.50;;;5.30;63.30;;;;;;5096800;28;20027;-82
2021/04/07 03:03:21;;;;;;;2.60;1.70;;;5.30;63.30;;;;;;5101317;27;20036;-84
2021/04/07 03:05:47;;;;;;;3.90;1.88;;;5.30;63.30;;;;;;5097627;28;20032;-84
2021/04/07 03:08:13;;;;;;;2.17;1.60;;;5.30;63.30;;;;;;5097210;28;20475;-84
2021/04/07 03:10:39;;;;;;;1.60;1.50;;;5.30;63.40;;;;;;5114789;28;20024;-85
2021/04/07 03:13:05;;;;;;;1.92;1.40;;;5.30;63.40;;;;;;5114090;28;20084;-84
2021/04/07 03:15:31;;;;;;;2.42;1.80;;;5.30;63.40;;;;;;5097678;28;20122;-84
2021/04/07 03:17:56;;;;;;;2.67;1.85;;;5.30;64.10;;;;;;5097196;28;20024;-83
2021/04/07 03:20:22;;;;;;;1.58;1.40;;;5.30;63.40;;;;;;5097092;28;20037;-85
2021/04/07 03:22:48;;;;;;;1.60;1.50;;;5.30;63.40;;;;;;5096979;28;20059;-85
2021/04/07 03:25:14;;;;;;;1.92;1.73;;;5.30;63.40;;;;;;5097051;28;20020;-85
2021/04/07 03:27:40;;;;;;;1.88;1.60;;;5.30;63.50;;;;;;5097437;28;20114;-86
2021/04/07 03:30:06;;;;;;;1.50;1.40;;;5.30;64.10;;;;;;5093615;28;20036;-86
2021/04/07 03:32:33;;;;;;;1.77;1.67;;;5.30;63.50;;;;;;5108570;27;20080;-85
2021/04/07 03:34:58;;;;;;;2.30;1.60;;;5.30;63.50;;;;;;5100699;28;20081;-84
2021/04/07 03:37:24;;;;;;;1.60;1.50;;;5.30;63.50;;;;;;5114137;27;20392;-85
2021/04/07 03:39:51;;;;;;;1.55;1.42;;;5.30;63.50;;;;;;5114993;28;20092;-85
2021/04/07 03:42:17;;;;;;;1.45;1.35;;;5.30;63.50;;;;;;5093007;28;20032;-86
2021/04/07 03:44:43;;;;;;;2.50;1.65;;;5.30;63.50;;;;;;5113810;28;20383;-85
2021/04/07 03:47:09;;;;;;;1.65;1.55;;;5.30;63.60;;;;;;5113448;28;20031;-85
2021/04/07 03:49:35;;;;;;;1.60;1.50;;;5.30;63.50;;;;;;5096810;28;20042;-86
2021/04/07 03:52:00;;;;;;;1.27;1.17;;;5.30;63.60;;;;;;5114486;27;20027;-86
2021/04/07 03:54:27;;;;;;;3.08;1.60;;;5.30;63.60;;;;;;5094100;28;20038;-85
2021/04/07 03:56:55;;;;;;;1.90;1.55;;;5.30;63.60;;;;;;5108725;28;20114;-85
2021/04/07 03:59:20;;;;;;;1.55;1.42;;;5.30;63.60;;;;;;5096498;28;20161;-85
2021/04/07 04:01:46;;;;;;;1.67;1.58;;;5.30;63.60;;;;;;5113325;28;20122;-85
2021/04/07 04:04:13;;;;;;;1.38;1.27;;;5.30;63.60;;;;;;5095850;28;20490;-85
2021/04/07 04:06:43;;;;;;;1.40;1.30;;;5.30;63.60;;;;;;5114723;27;20391;-85
2021/04/07 04:09:09;;;;;;;1.75;1.65;;;5.30;63.60;;;;;;5113178;28;20100;-84
2021/04/07 04:11:35;;;;;;;1.55;1.45;;;5.30;63.60;;;;;;5096478;28;20024;-85
2021/04/07 04:14:00;;;;;;;1.65;1.40;;;5.30;63.60;;;;;;5096227;28;20032;-86
2021/04/07 04:16:28;;;;;;;1.60;1.48;;;5.30;63.70;;;;;;5113175;28;20426;-83
2021/04/07 04:18:54;;;;;;;1.52;1.35;;;5.30;63.70;;;;;;5112844;28;20027;-84
2021/04/07 04:21:20;;;;;;;1.70;1.20;;;5.30;63.70;;;;;;5095953;28;20038;-85
2021/04/07 04:23:45;;;;;;;2.38;1.40;;;5.30;63.70;;;;;;5113279;27;20115;-85
2021/04/07 04:26:11;;;;;;;1.50;1.30;;;5.30;63.70;;;;;;5095831;28;20577;-84
2021/04/07 04:28:37;;;;;;;1.73;1.40;;;5.30;63.70;;;;;;5113365;28;20110;-84
2021/04/07 04:31:03;;;;;;;1.52;1.35;;;5.30;63.70;;;;;;5095691;28;20514;-84
2021/04/07 04:33:29;;;;;;;2.20;1.55;;;5.30;63.70;;;;;;5099285;28;20035;-84
2021/04/07 04:35:57;;;;;;;1.83;1.40;;;5.30;63.70;;;;;;5113219;28;20027;-87
2021/04/07 04:38:26;;;;;;;1.50;1.40;;;5.30;63.70;;;;;;5113685;27;20032;-86
2021/04/07 04:40:53;;;;;;;1.48;1.38;;;5.30;64.40;;;;;;5118971;27;20023;-84
2021/04/07 04:43:19;;;;;;;1.40;1.30;;;5.30;63.70;;;;;;5100377;28;20047;-84
2021/04/07 04:45:45;;;;;;;1.42;1.30;;;5.30;63.70;;;;;;5113217;28;20035;-84
2021/04/07 04:48:11;;;;;;;1.30;1.23;;;5.30;63.70;;;;;;5095909;28;20019;-84
2021/04/07 04:50:37;;;;;;;1.67;1.40;;;5.30;64.40;;;;;;5100334;28;20027;-84
2021/04/07 04:53:03;;;;;;;1.60;1.40;;;5.30;63.80;;;;;;5101994;28;20035;-84
2021/04/07 04:55:29;;;;;;;2.08;1.50;;;5.30;63.70;;;;;;5121870;27;20123;-84
2021/04/07 04:57:56;;;;;;;1.60;1.50;;;5.30;63.70;;;;;;5100236;28;20475;-83
2021/04/07 05:00:22;;;;;;;1.50;1.40;;;5.30;63.80;;;;;;5098819;28;20028;-85
2021/04/07 05:02:48;;;;;;;1.50;1.40;;;5.30;63.70;;;;;;5117033;28;20035;-86
2021/04/07 05:05:15;;;;;;;1.27;1.20;;;5.30;63.80;;;;;;5113501;27;20038;-85
2021/04/07 05:07:41;;;;;;;1.60;1.50;;;5.30;63.80;;;;;;5100279;28;20047;-86
2021/04/07 05:10:07;;;;;;;1.77;1.48;;;5.30;63.80;;;;;;5101173;28;20551;-84
2021/04/07 05:12:33;;;;;;;1.50;1.40;;;5.30;63.90;;;;;;5116538;28;20032;-84
2021/04/07 05:14:59;;;;;;;2.30;1.40;;;5.30;63.90;;;;;;5099120;28;20028;-80
2021/04/07 05:17:27;;;;;;;1.67;1.35;;;5.30;63.80;;;;;;5095364;28;20035;-80
2021/04/07 05:19:53;;;;;;;1.50;1.27;;;5.30;63.90;;;;;;5113556;27;20080;-80
2021/04/07 05:22:19;;;;;;;1.40;1.30;;;5.30;63.80;;;;;;5115322;28;20440;-83
2021/04/07 05:24:44;;;;;;;1.40;1.30;;;5.30;63.90;;;;;;5115954;27;20028;-80
2021/04/07 05:27:10;;;;;;;1.52;1.42;;;5.30;63.90;;;;;;5118352;27;20149;-81
2021/04/07 05:29:36;;;;;;;1.70;1.35;;;5.30;63.90;;;;;;5114501;27;20130;-80
2021/04/07 05:32:02;;;;;;;1.95;1.30;;;5.30;63.90;;;;;;5098298;28;20436;-81
2021/04/07 05:34:28;;;;;;;1.90;1.40;;;5.30;63.90;;;;;;5115215;28;20038;-81
2021/04/07 05:36:54;;;;;;;2.20;1.38;;;5.30;63.90;;;;;;5098589;28;20061;-81
2021/04/07 05:39:20;;;;;;;1.40;1.30;;;5.30;64.00;;;;;;5116347;28;20037;-79
2021/04/07 05:41:46;;;;;;;1.38;1.20;;;5.30;64.00;;;;;;5097927;28;20531;-80
2021/04/07 05:44:12;;;;;;;1.40;1.30;;;5.30;64.00;;;;;;5103586;27;20031;-82
2021/04/07 05:46:37;;;;;;;1.23;1.15;;;5.30;64.00;;;;;;5098700;28;20050;-81
2021/04/07 05:49:03;;;;;;;1.40;1.30;;;5.30;64.00;;;;;;5115249;27;20059;-79
2021/04/07 05:51:29;;;;;;;1.25;1.23;;;5.30;64.00;;;;;;5106126;27;20033;-80
2021/04/07 05:53:55;;;;;;;1.30;1.20;;;5.30;64.10;;;;;;5096030;28;20024;-79
2021/04/07 05:56:20;;;;;;;1.30;1.30;;;5.30;64.10;;;;;;5112215;27;20035;-81
2021/04/07 05:58:46;;;;;;;1.40;1.30;;;5.30;64.10;;;;;;5101050;27;20114;-80
2021/04/07 06:01:12;;;;;;;1.42;1.33;;;5.30;64.10;;;;;;5099300;28;20034;-82
2021/04/07 06:03:37;;;;;;;2.47;1.40;;;5.30;64.10;;;;;;5101022;28;20084;-81
2021/04/07 06:06:07;;;;;;;1.40;1.30;;;5.30;64.10;;;;;;5099302;28;20032;-79
2021/04/07 06:08:33;;;;;;;1.27;1.17;;;5.30;64.20;;;;;;5113985;28;20039;-79
2021/04/07 06:10:59;;;;;;;1.40;1.30;;;5.30;64.20;;;;;;5113643;27;20066;-78
2021/04/07 06:13:25;;;;;;;1.40;1.30;;;5.30;64.20;;;;;;5101160;27;20429;-77
2021/04/07 06:15:50;;;;;;;1.58;1.30;;;5.30;64.20;;;;;;5117972;27;20383;-78
2021/04/07 06:18:16;;;;;;;1.50;1.40;;;5.30;64.20;;;;;;5111610;28;20089;-80
2021/04/07 06:20:45;;;;;;;1.40;1.30;;;5.30;64.30;;;;;;5112790;28;20407;-80
2021/04/07 06:23:12;;;;;;;1.45;1.30;;;5.30;64.30;;;;;;5114374;28;20124;-83
2021/04/07 06:25:38;;;;;;;1.40;1.30;;;5.30;64.30;;;;;;5114246;28;20039;-82
2021/04/07 06:28:10;;;;;;;1.40;1.30;;;5.30;64.30;;;;;;5114471;28;20019;-83
2021/04/07 06:30:45;;;;;;;1.63;1.52;;;5.30;64.30;;;;;;5095082;28;20036;-81
2021/04/07 06:33:14;;;;;;;1.42;1.33;;;5.30;64.30;;;;;;5110056;28;20038;-79
2021/04/07 06:35:41;;;;;;;1.33;1.27;;;5.30;64.30;;;;;;5114236;28;20027;-80
2021/04/07 06:38:07;;;;;;;1.50;1.40;;;5.30;64.30;;;;;;5097834;27;20031;-81
2021/04/07 06:40:33;;;;;;;1.60;1.50;;;5.30;64.40;;;;;;5129342;27;20020;-81
2021/04/07 06:43:01;;;;;;;1.67;1.50;;;5.30;64.40;;;;;;5097456;28;20059;-82
2021/04/07 06:45:31;;;;;;;1.60;1.50;;;5.30;64.40;;;;;;5114097;27;20027;-81
2021/04/07 06:47:57;;;;;;;1.65;1.55;;;5.30;64.40;;;;;;5114500;28;20050;-81
2021/04/07 06:50:24;;;;;;;2.03;1.70;;;5.30;64.40;;;;;;5114008;28;20020;-81
2021/04/07 06:52:52;;;;;;;1.65;1.55;;;5.30;64.50;;;;;;5114361;28;20034;-80
2021/04/07 06:55:18;;;;;;;2.00;1.60;;;5.30;64.50;;;;;;5113713;28;20024;-81
2021/04/07 06:57:45;;;;;;;1.50;1.40;;;5.30;64.50;;;;;;5114431;28;20027;-81
2021/04/07 07:00:13;;;;;;;1.40;1.30;;;5.30;64.50;;;;;;5119514;27;20107;-81
2021/04/07 07:02:39;;;;;;;1.60;1.50;;;5.30;64.50;;;;;;5114423;28;20057;-82
2021/04/07 07:05:06;;;;;;;1.40;1.30;;;5.30;64.50;;;;;;5114705;28;20035;-83
2021/04/07 07:07:32;;;;;;;1.50;1.40;;;5.30;64.50;;;;;;5114387;27;20140;-84
2021/04/07 07:09:58;;;;;;;1.65;1.55;;;5.30;64.50;;;;;;5114204;28;20059;-84
2021/04/07 07:12:25;;;;;;;1.92;1.70;;;5.30;64.50;;;;;;5101068;28;20043;-82
2021/04/07 07:14:51;;;;;;;1.60;1.50;;;5.40;64.60;;;;;;5113470;28;20015;-83
2021/04/07 07:17:33;;;;;;;1.58;1.48;;;5.30;64.60;;;;;;5113817;28;20172;-83
2021/04/07 07:19:59;;;;;;;1.50;1.40;;;5.40;64.70;;;;;;5114513;28;20051;-83
2021/04/07 07:22:27;;;;;;;1.70;1.60;;;5.40;64.60;;;;;;5115242;27;20435;-84
2021/04/07 07:24:59;;;;;;;1.50;1.40;;;5.40;64.60;;;;;;5093892;28;20032;-84
2021/04/07 07:27:43;;;;;;;1.80;1.70;;;5.40;64.60;;;;;;5109762;28;20028;-83
2021/04/07 07:30:12;;;;;;;1.70;1.60;;;5.40;64.70;;;;;;5114396;27;20036;-83
2021/04/07 07:32:40;;;;;;;1.58;1.48;;;5.40;64.60;;;;;;5097011;28;20043;-83
2021/04/07 07:35:16;;;;;;;1.88;1.38;;;5.40;64.60;;;;;;5113913;28;20028;-83
2021/04/07 07:37:44;;;;;;;1.55;1.42;;;5.40;64.70;;;;;;5114983;28;20027;-83
2021/04/07 07:40:16;;;;;;;1.92;1.73;;;5.40;64.60;;;;;;5115166;27;20089;-83
2021/04/07 07:42:44;;;;;;;1.70;1.50;;;5.40;64.60;;;;;;5113709;28;20039;-84
2021/04/07 07:45:10;;;;;;;1.50;1.40;;;5.50;64.60;;;;;;5097190;28;20040;-85
2021/04/07 07:47:41;;;;;;;1.83;1.50;;;5.50;64.60;;;;;;5114977;28;20015;-84
2021/04/07 07:50:08;;;;;;;1.88;1.40;;;5.50;64.70;;;;;;5096930;28;20042;-81
2021/04/07 07:52:36;;;;;;;1.80;1.70;;;5.50;64.60;;;;;;5113037;28;20028;-82
2021/04/07 07:55:19;;;;;;;1.83;1.35;;;5.50;64.60;;;;;;5113481;27;20464;-82
2021/04/07 07:57:58;;;;;;;1.40;1.30;;;5.50;64.70;;;;;;5107385;28;20110;-83
2021/04/07 08:00:25;;;;;;;2.88;1.50;;;5.50;64.70;;;;;;5102621;28;20031;-81
2021/04/07 08:02:53;;;;;;;1.75;1.60;;;5.60;64.70;;;;;;5082900;28;20101;-82
2021/04/07 08:05:23;;;;;;;1.67;1.40;;;5.60;64.80;;;;;;5099396;28;20421;-82
2021/04/07 08:07:52;;;;;;;2.00;1.40;;;5.60;64.80;;;;;;5112601;28;20044;-83
2021/04/07 08:10:20;;;;;;;1.75;1.42;;;5.60;64.80;;;;;;5099913;28;20067;-82
2021/04/07 08:12:47;;;;;;;1.42;1.33;;;5.70;64.90;;;;;;5100175;28;20032;-84
2021/04/07 08:15:13;;;;;;;1.52;1.40;;;5.70;65.00;;;;;;5114173;27;20028;-84
2021/04/07 08:17:39;;;;;;;1.88;1.50;;;5.70;65.00;;;;;;5096949;28;20019;-83
2021/04/07 08:20:06;;;;;;;1.20;1.20;;;5.70;65.00;;;;;;5089352;28;20046;-83
2021/04/07 08:22:34;;;;;;;1.77;1.50;;;5.80;65.20;;;;;;5095208;28;20038;-82
2021/04/07 08:25:02;;;;;;;1.30;1.20;;;5.80;65.30;;;;;;5098871;28;20545;-82
2021/04/07 08:27:29;;;;;;;2.03;1.30;;;5.80;65.40;;;;;;5113292;28;20023;-83
2021/04/07 08:29:55;;;;;;;2.63;1.50;;;5.90;65.40;;;;;;5095176;28;20019;-83
2021/04/07 08:32:22;;;;;;;3.50;1.60;;;5.90;65.50;;;;;;5111546;28;20036;-80
2021/04/07 08:34:49;;;;;;;1.83;1.25;;;6.00;65.60;;;;;;5094927;28;20123;-83
2021/04/07 08:37:25;;;;;;;4.28;1.48;;;6.00;65.80;;;;;;5113896;28;20019;-82
2021/04/07 08:39:51;;;;;;;3.95;1.88;;;6.00;66.60;;;;;;5114827;28;20503;-82
2021/04/07 08:42:17;;;;;;;2.15;1.38;;;6.10;65.90;;;;;;5111861;28;20289;-82
2021/04/07 08:44:45;;;;;;;2.97;1.58;;;6.10;66.00;;;;;;5094944;28;20059;-80
2021/04/07 08:48:02;;;;;;;2.45;1.50;;;6.20;66.10;;;;;;5111984;28;20107;-84
2021/04/07 08:50:11;;;;;;;3.50;1.65;;;6.20;66.30;;;;;;5101057;28;20058;-79
2021/04/07 08:52:50;;;;;;;2.05;1.23;;;6.20;66.10;;;;;;5112930;28;20081;-80
2021/04/07 08:55:22;;;;;;;3.53;1.50;;;6.30;66.30;;;;;;5094869;28;20039;-81
2021/04/07 08:58:03;;;;;;;1.77;1.30;;;6.30;66.30;;;;;;5111903;28;20039;-81
2021/04/07 09:00:32;;;;;;;1.33;1.23;;;6.30;66.40;;;;;;5111666;28;20479;-81
2021/04/07 09:03:20;;;;;;;1.35;1.20;;;6.40;66.30;;;;;;5111718;28;20475;-85
2021/04/07 09:05:48;;;;;;;3.75;1.60;;;6.40;66.50;;;;;;5112082;28;20456;-83
2021/04/07 09:08:16;;;;;;;2.55;1.45;;;6.40;66.30;;;;;;5094910;28;20067;-83
2021/04/07 09:10:45;;;;;;;3.70;1.65;;;6.40;66.30;;;;;;5127830;28;20034;-83
2021/04/07 09:13:13;;;;;;;2.65;1.50;;;6.50;66.40;;;;;;5111777;28;20085;-82
2021/04/07 09:15:49;;;;;;;3.97;1.63;;;6.50;66.40;;;;;;5095435;28;20443;-82
2021/04/07 09:18:32;;;;;;;2.45;1.50;;;6.60;66.60;;;;;;5113123;28;20020;-82
2021/04/07 09:20:59;;;;;;;3.30;1.50;;;6.60;66.60;;;;;;5112101;28;20055;-84
2021/04/07 09:23:32;;;;;;;3.25;1.65;;;6.70;66.60;;;;;;5096012;28;20118;-84
2021/04/07 09:26:09;;;;;;;2.63;1.40;;;6.70;66.80;;;;;;5111862;28;20024;-85
2021/04/07 09:28:41;;;;;;;4.65;1.70;;;6.80;66.70;;;;;;5107636;28;20026;-83
2021/04/07 09:31:33;;;;;;;2.80;1.40;;;6.80;67.40;;;;;;5112019;28;20372;-84
2021/04/07 09:33:59;;;;;;;3.35;1.60;;;6.80;66.90;;;;;;5098048;28;20036;-84
2021/04/07 09:36:27;;;;;;;4.20;1.55;;;6.90;66.70;;;;;;5112217;28;20032;-85
2021/04/07 09:38:55;;;;;;;6.03;2.10;;;6.90;66.80;;;;;;5105045;28;20035;-86
2021/04/07 09:41:25;;;;;;;4.60;1.60;;;7.00;66.80;;;;;;5110684;28;20080;-85
2021/04/07 09:43:51;;;;;;;4.88;1.77;;;7.00;66.80;;;;;;5099834;28;20047;-84
2021/04/07 09:46:17;;;;;;;2.72;1.60;;;7.10;66.80;;;;;;5115843;28;20110;-83
2021/04/07 09:48:56;;;;;;;5.88;2.22;;;7.20;66.80;;;;;;5115857;28;20059;-85
2021/04/07 09:51:39;;;;;;;5.53;1.73;;;7.20;66.90;;;;;;5116152;28;20072;-85
2021/04/07 09:54:19;;;;;;;4.10;1.85;;;7.30;66.90;;;;;;5142936;27;20024;-83
2021/04/07 09:56:54;;;;;;;3.70;1.67;;;7.30;66.90;;;;;;5115639;28;20032;-84
2021/04/07 09:59:30;;;;;;;4.47;1.52;;;7.30;66.70;;;;;;5116288;28;20023;-84
2021/04/07 10:01:56;;;;;;;2.53;1.42;;;7.40;66.70;;;;;;5115948;28;20040;-86
2021/04/07 10:04:26;;;;;;;6.00;1.80;;;7.50;66.70;;;;;;5099005;28;20046;-87
2021/04/07 10:06:52;;;;;;;3.83;1.70;;;7.50;66.90;;;;;;5131804;27;20043;-87
2021/04/07 10:09:29;;;;;;;4.50;1.90;;;7.50;66.90;;;;;;5098567;28;20388;-84
2021/04/07 10:11:55;;;;;;;2.10;1.30;;;7.60;67.10;;;;;;5115532;28;20020;-84
2021/04/07 10:14:22;;;;;;;2.08;1.30;;;7.60;67.00;;;;;;5115840;28;20023;-86
2021/04/07 10:16:48;;;;;;;3.15;1.58;;;7.70;67.10;;;;;;5115377;28;20081;-85
2021/04/07 10:19:13;;;;;;;4.80;1.50;;;7.70;67.10;;;;;;5098628;28;20058;-85
2021/04/07 10:21:43;;;;;;;3.67;1.70;;;7.80;67.20;;;;;;5098104;28;20024;-86
2021/04/07 10:24:13;;;;;;;3.25;1.50;;;7.80;67.20;;;;;;5117231;27;20031;-84
2021/04/07 10:26:43;;;;;;;3.55;1.55;;;7.90;67.20;;;;;;5115102;28;20110;-85
2021/04/07 10:29:21;;;;;;;3.40;1.60;;;7.90;67.20;;;;;;5115147;28;20059;-86
2021/04/07 10:31:52;;;;;;;6.32;1.83;;;7.90;67.30;;;;;;5115120;28;20027;-85
2021/04/07 10:34:36;;;;;;;3.75;1.67;;;8.00;67.20;;;;;;5120288;27;20035;-85
2021/04/07 10:37:03;;;;;;;2.65;1.60;;;8.00;67.30;;;;;;5131237;27;20337;-86
2021/04/07 10:39:40;;;;;;;4.00;1.50;;;8.00;67.10;;;;;;5124537;27;20111;-87
2021/04/07 10:42:19;;;;;;;3.45;1.90;;;8.10;67.20;;;;;;5130493;27;20036;-88
2021/04/07 10:45:05;;;;;;;4.32;1.80;;;8.10;67.00;;;;;;5115369;28;20107;-86
2021/04/07 10:47:35;;;;;;;4.15;1.60;;;8.10;67.10;;;;;;5102516;28;20031;-87
2021/04/07 10:50:01;;;;;;;3.72;1.50;;;8.20;67.00;;;;;;5112932;28;20158;-84
2021/04/07 10:52:33;;;;;;;3.17;1.33;;;8.20;67.00;;;;;;5096866;28;20057;-87
2021/04/07 10:55:01;;;;;;;3.40;1.50;;;8.30;67.10;;;;;;5116630;27;20480;-86
2021/04/07 10:57:38;;;;;;;3.60;1.63;;;8.30;67.00;;;;;;5129099;27;20023;-83
2021/04/07 11:00:07;;;;;;;4.25;1.75;;;8.40;67.10;;;;;;5115496;27;20038;-83
2021/04/07 11:02:47;;;;;;;3.20;1.63;;;8.40;67.70;;;;;;5113828;27;20032;-85
2021/04/07 11:05:24;;;;;;;5.20;1.50;;;8.40;67.10;;;;;;5100737;28;20043;-84
2021/04/07 11:08:01;;;;;;;4.95;1.63;;;8.50;67.10;;;;;;5118165;27;20039;-84
2021/04/07 11:10:27;;;;;;;3.38;1.52;;;8.50;67.20;;;;;;5098066;28;20118;-85
2021/04/07 11:12:53;;;;;;;3.78;1.40;;;8.50;67.10;;;;;;5114335;28;20062;-84
2021/04/07 11:15:19;;;;;;;2.72;1.60;;;8.50;67.10;;;;;;5114609;28;20043;-86
2021/04/07 11:17:53;;;;;;;3.30;1.48;;;8.60;67.10;;;;;;5097272;28;20061;-87
2021/04/07 11:20:20;;;;;;;4.60;1.92;;;8.60;67.20;;;;;;5114585;28;20054;-82
2021/04/07 11:22:46;;;;;;;3.17;1.38;;;8.60;67.10;;;;;;5113812;28;20038;-85
2021/04/07 11:25:12;;;;;;;3.45;1.60;;;8.60;67.00;;;;;;5097163;28;20114;-84
2021/04/07 11:27:38;;;;;;;3.17;1.50;;;8.70;67.10;;;;;;5114354;28;20031;-84
2021/04/07 11:30:06;;;;;;;3.90;1.30;;;8.70;67.10;;;;;;5097057;28;20115;-85
2021/04/07 11:32:33;;;;;;;2.83;1.38;;;8.70;67.10;;;;;;5093762;28;20032;-85
2021/04/07 11:35:04;;;;;;;3.20;1.60;;;8.80;67.10;;;;;;5095944;28;20035;-84
2021/04/07 11:38:14;;;;;;;5.45;1.90;;;8.80;67.10;;;;;;5097710;28;20035;-84
2021/04/07 11:45:23;;;;;;;3.47;1.65;;;8.90;67.00;;;;;;5113721;28;20034;-84
2021/04/07 11:47:49;;;;;;;2.25;1.20;;;8.90;67.00;;;;;;5098367;28;20032;-84
2021/04/07 11:50:15;;;;;;;3.00;1.40;;;8.90;67.00;;;;;;5110083;28;20089;-85
2021/04/07 11:52:41;;;;;;;3.97;1.70;;;8.90;67.00;;;;;;5113390;28;20032;-85
2021/04/07 11:55:07;;;;;;;4.10;1.45;;;9.00;67.00;;;;;;5096635;28;20035;-84
2021/04/07 11:57:33;;;;;;;2.63;1.55;;;9.00;67.00;;;;;;5093419;28;20023;-86
2021/04/07 11:59:59;;;;;;;2.92;1.58;;;9.00;67.00;;;;;;5093087;28;20028;-86
2021/04/07 12:02:25;;;;;;;5.00;1.60;;;9.00;67.00;;;;;;5111604;28;20085;-85
2021/04/07 12:04:52;;;;;;;4.32;1.90;;;9.00;67.60;;;;;;5092788;28;20069;-85
2021/04/07 12:07:18;;;;;;;3.60;1.63;;;9.00;67.00;;;;;;5095768;28;20074;-86
2021/04/07 12:09:44;;;;;;;2.88;1.45;;;9.10;67.00;;;;;;5113572;28;20028;-86
2021/04/07 12:12:10;;;;;;;3.13;1.60;;;9.10;67.00;;;;;;5096585;28;20376;-86
2021/04/07 12:14:36;;;;;;;3.63;1.48;;;9.10;67.00;;;;;;5112655;28;20449;-84
2021/04/07 12:17:02;;;;;;;4.35;1.70;;;9.10;66.90;;;;;;5096968;28;20035;-85
2021/04/07 12:19:28;;;;;;;2.25;1.33;;;9.20;67.00;;;;;;5114602;28;20032;-84
2021/04/07 12:21:54;;;;;;;3.65;1.65;;;9.20;66.90;;;;;;5096555;28;20096;-84
2021/04/07 12:24:20;;;;;;;4.20;1.67;;;9.20;66.90;;;;;;5096446;28;20122;-86
2021/04/07 12:26:46;;;;;;;1.40;1.20;;;9.20;66.80;;;;;;5112978;28;20108;-83
2021/04/07 12:29:12;;;;;;;3.42;1.58;;;9.20;66.80;;;;;;5092996;28;20365;-85
2021/04/07 12:31:37;;;;;;;4.13;1.40;;;9.30;66.80;;;;;;5129245;27;20028;-85
2021/04/07 12:34:03;;;;;;;3.17;1.40;;;9.30;66.70;;;;;;5092071;28;20020;-84
2021/04/07 12:36:31;;;;;;;4.97;1.58;;;9.30;66.70;;;;;;5107715;28;20043;-85
2021/04/07 12:38:59;;;;;;;3.20;1.52;;;9.30;66.70;;;;;;5112588;28;20028;-83
2021/04/07 12:41:32;;;;;;;3.17;1.65;;;9.30;66.60;;;;;;5112632;28;20474;-85
2021/04/07 12:43:58;;;;;;;2.65;1.52;;;9.30;66.60;;;;;;5109058;28;20134;-88
2021/04/07 12:46:24;;;;;;;2.83;1.35;;;9.30;66.50;;;;;;5095859;28;20464;-85
2021/04/07 12:48:51;;;;;;;3.22;1.40;;;9.30;66.50;;;;;;5095438;28;20035;-87
2021/04/07 12:51:19;;;;;;;5.93;2.08;;;9.40;66.50;;;;;;5092767;28;20077;-86
2021/04/07 12:53:45;;;;;;;1.17;1.00;;;9.40;67.10;;;;;;5109639;28;20027;-89
2021/04/07 12:56:16;;;;;;;2.47;1.52;;;9.40;66.40;;;;;;5096529;28;20035;-91
2021/04/07 12:58:46;;;;;;;3.63;1.48;;;9.40;66.40;;;;;;5096626;28;20036;-91
2021/04/07 13:01:13;;;;;;;3.50;1.70;;;9.40;66.40;;;;;;5116008;28;20067;-90
2021/04/07 13:03:39;;;;;;;3.92;1.45;;;9.40;66.30;;;;;;5112866;28;20067;-87
2021/04/07 13:06:05;;;;;;;3.53;1.23;;;9.40;66.30;;;;;;5112786;28;20096;-88
2021/04/07 13:08:31;;;;;;;3.50;1.40;;;9.40;66.30;;;;;;5112709;28;20116;-88